Time;durP1;ratioP1;P1;durP2;ratioP2;P2;SDS_P1;SDS_P2;PMS_P1;PMS_P2;Temp;Humidity;BMP_temperature;BMP_pressure;BME280_temperature;BME280_humidity;BME280_pressure;Samples;Min_cycle;Max_cycle;Signal;HPM_P1;HPM_P2
2022/08/31 00:05:01;;;;;;;5.83;5.03;;;;;;;20.36;75.81;99646.91;4901685;28;20550;-79
2022/08/31 00:07:27;;;;;;;7.27;6.40;;;;;;;20.36;76.02;99644.25;4892417;29;20451;-83
2022/08/31 00:09:53;;;;;;;7.60;5.20;;;;;;;20.38;76.01;99641.41;4884143;29;20202;-83
2022/08/31 00:12:19;;;;;;;8.43;6.40;;;;;;;20.42;75.97;99640.94;4875793;29;20324;-79
2022/08/31 00:14:44;;;;;;;9.37;6.23;;;;;;;20.50;75.74;99643.63;4876105;29;20460;-79
2022/08/31 00:17:10;;;;;;;9.17;6.83;;;;;;;20.58;75.72;99648.22;4879139;29;20707;-79
2022/08/31 00:19:35;;;;;;;7.30;6.37;;;;;;;20.62;75.51;99649.53;4891689;29;20227;-78
2022/08/31 00:22:01;;;;;;;8.90;6.70;;;;;;;20.61;75.18;99653.22;4893633;29;20360;-79
2022/08/31 00:24:27;;;;;;;7.23;6.17;;;;;;;20.58;75.53;99650.00;4885398;29;20544;-78
2022/08/31 00:26:52;;;;;;;6.90;6.20;;;;;;;20.56;75.60;99647.53;4864655;29;20428;-78
2022/08/31 00:29:18;;;;;;;8.20;6.40;;;;;;;20.55;75.63;99649.34;4904469;29;20213;-79
2022/08/31 00:31:43;;;;;;;6.50;5.90;;;;;;;20.59;75.78;99646.38;4873848;29;20752;-82
2022/08/31 00:34:09;;;;;;;9.13;5.67;;;;;;;20.65;75.79;99654.53;4918478;29;20222;-85
2022/08/31 00:36:35;;;;;;;7.10;6.40;;;;;;;20.68;75.66;99643.53;4913167;29;20293;-81
2022/08/31 00:39:00;;;;;;;8.27;6.53;;;;;;;20.69;75.49;99645.22;4894192;29;20230;-78
2022/08/31 00:41:29;;;;;;;8.40;5.60;;;;;;;20.64;75.39;99639.53;4905889;29;21165;-79
2022/08/31 00:43:59;;;;;;;7.33;6.10;;;;;;;20.53;75.68;99650.47;4889685;29;20216;-80
2022/08/31 00:46:31;;;;;;;7.77;6.83;;;;;;;20.45;75.94;99648.63;4914242;29;20932;-84
2022/08/31 00:49:16;;;;;;;8.50;6.40;;;;;;;20.36;76.24;99644.25;4922480;29;20488;-85
2022/08/31 00:54:47;;;;;;;11.13;6.10;;;;;;;20.30;76.60;99645.69;4949812;29;20488;-78
2022/08/31 00:57:13;;;;;;;9.03;6.50;;;;;;;20.32;76.41;99649.03;4948124;29;20469;-78
2022/08/31 00:59:41;;;;;;;8.43;6.20;;;;;;;20.34;76.31;99647.06;4934475;29;20486;-79
2022/08/31 01:02:07;;;;;;;10.57;6.87;;;;;;;20.31;76.37;99652.72;4949312;29;20469;-79
2022/08/31 01:04:34;;;;;;;9.83;7.27;;;;;;;20.27;76.52;99651.34;4952509;29;20442;-81
2022/08/31 01:07:01;;;;;;;7.37;6.67;;;;;;;20.23;76.94;99649.19;4953926;28;20450;-78
2022/08/31 01:09:31;;;;;;;7.43;6.30;;;;;;;20.21;76.84;99653.81;4952625;28;20517;-78
2022/08/31 01:11:57;;;;;;;9.27;5.93;;;;;;;20.08;77.42;99652.41;4951425;28;20451;-78
2022/08/31 01:14:23;;;;;;;8.30;7.07;;;;;;;20.07;77.32;99650.75;4951494;28;20861;-79
2022/08/31 01:16:52;;;;;;;7.97;6.07;;;;;;;20.04;77.45;99651.06;4951801;28;20194;-80
2022/08/31 01:19:35;;;;;;;7.67;6.37;;;;;;;20.01;77.65;99654.06;4950985;28;20477;-78
2022/08/31 01:22:26;;;;;;;9.03;7.23;;;;;;;19.95;77.98;99657.31;4951209;29;20466;-79
2022/08/31 01:24:53;;;;;;;8.53;6.37;;;;;;;19.94;77.90;99658.34;4959427;28;21241;-79
2022/08/31 01:27:26;;;;;;;9.00;6.40;;;;;;;19.93;77.78;99650.47;4952266;28;20457;-80
2022/08/31 01:29:51;;;;;;;7.63;6.57;;;;;;;19.91;78.08;99650.66;4952174;29;20475;-80
2022/08/31 01:32:17;;;;;;;9.20;6.70;;;;;;;19.95;78.05;99659.16;4951057;29;20564;-80
2022/08/31 01:34:42;;;;;;;9.47;6.70;;;;;;;19.99;78.01;99655.22;4968297;28;20299;-79
2022/08/31 01:37:08;;;;;;;7.40;6.33;;;;;;;20.04;77.76;99661.75;4953609;28;20546;-78
2022/08/31 01:39:33;;;;;;;6.70;5.43;;;;;;;20.05;77.75;99659.91;4953739;28;20312;-79
2022/08/31 01:41:59;;;;;;;7.27;6.17;;;;;;;19.98;77.89;99651.72;4951572;29;20306;-78
2022/08/31 01:44:26;;;;;;;7.50;6.20;;;;;;;19.97;77.79;99652.69;4952231;29;20201;-78
2022/08/31 01:46:52;;;;;;;6.63;5.50;;;;;;;19.98;77.84;99645.50;4952354;29;20236;-78
2022/08/31 01:49:20;;;;;;;6.97;5.87;;;;;;;19.97;77.55;99644.69;4952592;28;20528;-78
2022/08/31 01:51:47;;;;;;;6.10;5.50;;;;;;;19.98;77.54;99640.19;4968497;28;20471;-79
2022/08/31 01:54:14;;;;;;;7.50;5.50;;;;;;;19.95;77.66;99635.16;4950093;29;20489;-78
2022/08/31 01:56:44;;;;;;;7.40;6.17;;;;;;;19.94;77.48;99631.69;4953133;29;20544;-78
2022/08/31 01:59:17;;;;;;;9.00;6.00;;;;;;;19.94;77.60;99633.50;4968052;28;20215;-78
2022/08/31 02:02:01;;;;;;;7.47;6.27;;;;;;;19.92;77.67;99636.31;4952330;28;20938;-78
2022/08/31 02:04:28;;;;;;;7.90;5.67;;;;;;;19.90;77.61;99624.97;4967609;28;20970;-77
2022/08/31 02:06:58;;;;;;;8.07;6.60;;;;;;;19.93;77.60;99621.16;4949372;29;20445;-78
2022/08/31 02:09:25;;;;;;;6.60;5.70;;;;;;;19.95;77.61;99617.34;4950060;29;20468;-77
2022/08/31 02:11:51;;;;;;;7.23;6.47;;;;;;;20.01;77.45;99624.72;4949568;29;20457;-78
2022/08/31 02:14:18;;;;;;;5.83;5.07;;;;;;;20.04;77.20;99619.06;4965200;28;20809;-78
2022/08/31 02:16:44;;;;;;;7.80;5.90;;;;;;;20.07;77.00;99624.09;4951416;28;20202;-78
2022/08/31 02:19:10;;;;;;;8.40;6.57;;;;;;;20.11;77.00;99627.25;4952947;28;20485;-78
2022/08/31 02:21:38;;;;;;;5.90;5.33;;;;;;;20.14;76.88;99621.59;4950939;29;20456;-79
2022/08/31 02:24:04;;;;;;;6.00;5.30;;;;;;;20.17;76.84;99620.47;4951431;29;20473;-78
2022/08/31 02:26:30;;;;;;;6.73;6.13;;;;;;;20.16;76.82;99621.47;4950454;28;20452;-78
2022/08/31 02:28:55;;;;;;;7.10;5.60;;;;;;;20.13;76.86;99614.63;4969707;28;20438;-79
2022/08/31 02:31:21;;;;;;;5.47;4.80;;;;;;;20.13;76.80;99616.44;4959694;28;20268;-78
2022/08/31 02:33:53;;;;;;;7.17;5.30;;;;;;;20.08;76.68;99614.25;4949409;29;20211;-80
2022/08/31 02:36:21;;;;;;;8.10;5.63;;;;;;;20.04;76.76;99607.56;4949672;29;20542;-79
2022/08/31 02:38:46;;;;;;;6.00;5.03;;;;;;;20.00;77.03;99615.03;4948059;28;20501;-78
2022/08/31 02:41:11;;;;;;;7.10;4.57;;;;;;;19.91;77.30;99605.34;4951307;28;20229;-79
2022/08/31 02:43:39;;;;;;;5.87;5.33;;;;;;;19.89;77.09;99605.47;4950477;29;20224;-78
2022/08/31 02:46:05;;;;;;;5.40;4.90;;;;;;;19.86;77.55;99605.78;4952273;29;20880;-78
2022/08/31 02:48:36;;;;;;;5.67;5.03;;;;;;;19.78;77.55;99596.91;4950735;29;20257;-79
2022/08/31 02:51:05;;;;;;;6.93;4.80;;;;;;;19.79;77.70;99599.41;4949772;29;20460;-79
2022/08/31 02:53:31;;;;;;;5.73;5.13;;;;;;;19.82;77.54;99598.25;4950914;28;20479;-79
2022/08/31 02:55:56;;;;;;;8.33;5.30;;;;;;;19.75;77.65;99605.22;4949280;29;20942;-78
2022/08/31 02:58:22;;;;;;;5.43;4.80;;;;;;;19.79;77.37;99598.59;4965486;28;20227;-78
2022/08/31 03:00:47;;;;;;;6.87;5.17;;;;;;;19.78;77.46;99583.59;4951768;29;20244;-79
2022/08/31 03:03:15;;;;;;;8.00;6.00;;;;;;;19.80;77.52;99586.94;4965752;28;20279;-80
2022/08/31 03:05:42;;;;;;;6.20;5.67;;;;;;;19.79;77.52;99582.59;4949126;28;20468;-78
2022/08/31 03:08:08;;;;;;;6.53;5.30;;;;;;;19.60;78.23;99581.78;4949504;29;20462;-79
2022/08/31 03:10:34;;;;;;;4.70;4.00;;;;;;;19.53;78.32;99574.59;4948088;29;20626;-78
2022/08/31 03:12:59;;;;;;;4.43;4.03;;;;;;;19.53;78.18;99567.41;4947307;28;20933;-79
2022/08/31 03:15:26;;;;;;;5.73;4.47;;;;;;;19.55;78.13;99576.09;4949682;29;20276;-78
2022/08/31 03:17:52;;;;;;;7.13;4.80;;;;;;;19.56;78.05;99572.44;4947807;29;20208;-79
2022/08/31 03:20:21;;;;;;;7.37;4.90;;;;;;;19.55;78.38;99564.59;4948300;29;20690;-79
2022/08/31 03:22:46;;;;;;;5.47;4.97;;;;;;;19.55;78.55;99569.91;4951484;28;20476;-78
2022/08/31 03:25:12;;;;;;;7.73;5.67;;;;;;;19.51;78.73;99573.91;4950299;29;20549;-79
2022/08/31 03:27:38;;;;;;;5.17;4.47;;;;;;;19.51;78.63;99568.56;4951446;28;20544;-79
2022/08/31 03:30:07;;;;;;;6.00;4.70;;;;;;;19.41;78.67;99579.31;4951345;28;20259;-78
2022/08/31 03:32:34;;;;;;;4.87;4.30;;;;;;;19.45;78.37;99570.84;4946849;29;20676;-79
2022/08/31 03:35:01;;;;;;;5.73;4.10;;;;;;;19.35;78.37;99574.59;4939372;29;20591;-78
2022/08/31 03:37:27;;;;;;;5.20;4.70;;;;;;;19.42;78.15;99565.84;4956752;28;20663;-79
2022/08/31 03:39:57;;;;;;;4.33;3.93;;;;;;;19.43;78.17;99556.84;4941507;29;20543;-78
2022/08/31 03:42:23;;;;;;;7.00;4.57;;;;;;;19.34;78.34;99559.63;4948955;29;20470;-79
2022/08/31 03:44:49;;;;;;;4.53;3.93;;;;;;;19.35;78.22;99553.28;4962241;28;21013;-80
2022/08/31 03:47:20;;;;;;;5.13;4.20;;;;;;;19.36;78.11;99558.47;4949277;29;20454;-78
2022/08/31 03:49:45;;;;;;;6.23;4.00;;;;;;;19.44;77.83;99569.19;4946763;29;20798;-78
2022/08/31 03:52:20;;;;;;;6.10;4.23;;;;;;;19.53;77.79;99574.59;4963811;28;20244;-79
2022/08/31 03:54:51;;;;;;;4.57;4.10;;;;;;;19.58;77.61;99581.13;4950193;29;20455;-79
2022/08/31 03:57:17;;;;;;;4.43;4.00;;;;;;;19.65;77.27;99581.31;4948193;29;20450;-79
2022/08/31 03:59:43;;;;;;;4.17;3.87;;;;;;;19.70;77.16;99579.03;4946884;29;20229;-79
2022/08/31 04:02:17;;;;;;;4.77;4.37;;;;;;;19.76;76.90;99590.91;4949820;28;20220;-79
2022/08/31 04:05:06;;;;;;;4.50;4.10;;;;;;;19.77;76.84;99584.59;4931535;28;20472;-78
2022/08/31 04:07:50;;;;;;;4.53;4.13;;;;;;;19.80;76.54;99581.63;4948063;29;20560;-78
2022/08/31 04:10:54;;;;;;;5.10;3.50;;;;;;;19.75;76.09;99575.91;4913903;29;20482;-78
2022/08/31 04:13:32;;;;;;;3.40;3.10;;;;;;;19.67;75.58;99569.53;4949351;28;21007;-78
2022/08/31 04:16:19;;;;;;;3.63;2.67;;;;;;;19.64;75.23;99579.66;4943899;29;20488;-78
2022/08/31 04:19:15;;;;;;;4.63;3.07;;;;;;;19.62;75.35;99574.47;4942828;29;20567;-79
2022/08/31 04:21:52;;;;;;;3.87;3.17;;;;;;;19.64;75.06;99580.47;4946203;29;20498;-79
2022/08/31 04:24:18;;;;;;;3.03;2.77;;;;;;;19.67;75.08;99579.38;4948962;28;20455;-79
2022/08/31 04:26:50;;;;;;;3.30;2.90;;;;;;;19.67;74.81;99582.84;4954129;28;20722;-78
2022/08/31 04:29:16;;;;;;;5.70;3.17;;;;;;;19.66;74.71;99585.69;4949081;29;20478;-78
2022/08/31 04:31:42;;;;;;;5.03;2.93;;;;;;;19.61;75.08;99594.13;4949843;29;20466;-78
2022/08/31 04:34:08;;;;;;;4.20;3.10;;;;;;;19.57;75.33;99589.25;4956004;28;20436;-79
2022/08/31 04:36:34;;;;;;;4.80;2.93;;;;;;;19.51;75.79;99588.03;4954853;29;20565;-79
2022/08/31 04:39:02;;;;;;;3.83;3.47;;;;;;;19.45;75.99;99596.66;4954539;28;20556;-79
2022/08/31 04:41:29;;;;;;;5.67;3.80;;;;;;;19.42;76.30;99599.66;4949401;29;20211;-78
2022/08/31 04:43:57;;;;;;;4.60;4.20;;;;;;;19.41;76.47;99603.28;4953084;28;20560;-78
2022/08/31 04:46:26;;;;;;;4.27;3.23;;;;;;;19.40;76.47;99609.59;4952002;28;20453;-79
2022/08/31 04:48:52;;;;;;;3.93;3.27;;;;;;;19.40;76.46;99615.78;4954721;28;20485;-78
2022/08/31 04:51:20;;;;;;;6.83;4.03;;;;;;;19.40;76.55;99615.78;4955422;28;20918;-78
2022/08/31 04:53:46;;;;;;;4.13;3.57;;;;;;;19.42;76.55;99623.63;4950745;28;20275;-79
2022/08/31 04:56:18;;;;;;;7.37;3.47;;;;;;;19.42;76.38;99624.44;4947152;28;20542;-78
2022/08/31 04:58:46;;;;;;;4.90;3.20;;;;;;;19.45;76.13;99623.31;4944569;28;20823;-79
2022/08/31 05:01:16;;;;;;;3.87;3.37;;;;;;;19.44;76.10;99621.63;4939159;29;20472;-78
2022/08/31 05:04:06;;;;;;;5.30;3.43;;;;;;;19.42;76.23;99628.94;4941612;29;20824;-79
2022/08/31 05:06:34;;;;;;;4.30;3.80;;;;;;;19.42;76.25;99631.59;4943347;28;20471;-79
2022/08/31 05:09:03;;;;;;;3.53;3.17;;;;;;;19.42;75.94;99635.09;4930772;29;20596;-79
2022/08/31 05:11:29;;;;;;;4.00;3.40;;;;;;;19.45;76.08;99632.13;4944525;28;20543;-79
2022/08/31 05:13:59;;;;;;;6.30;3.90;;;;;;;19.46;76.13;99641.78;4948615;28;20625;-79
2022/08/31 05:16:25;;;;;;;6.20;4.43;;;;;;;19.49;76.10;99645.13;4943745;29;20300;-79
2022/08/31 05:18:51;;;;;;;6.30;3.93;;;;;;;19.52;76.10;99650.16;4956352;28;20560;-78
2022/08/31 05:21:26;;;;;;;3.67;3.07;;;;;;;19.55;76.34;99649.84;4945014;29;20468;-79
2022/08/31 05:23:53;;;;;;;5.23;4.73;;;;;;;19.56;76.09;99652.38;4947862;28;20828;-79
2022/08/31 05:26:21;;;;;;;4.30;3.90;;;;;;;19.57;76.29;99659.34;4944614;28;20952;-78
2022/08/31 05:28:47;;;;;;;4.40;4.00;;;;;;;19.59;76.47;99661.88;4939231;29;21017;-78
2022/08/31 05:31:13;;;;;;;4.07;3.30;;;;;;;19.55;76.52;99663.16;4941522;29;20707;-79
2022/08/31 05:33:43;;;;;;;5.03;4.20;;;;;;;19.54;76.64;99665.00;4943821;28;20617;-78
2022/08/31 05:36:11;;;;;;;5.60;4.13;;;;;;;19.51;76.97;99670.63;4944057;28;20260;-79
2022/08/31 05:38:38;;;;;;;3.63;3.10;;;;;;;19.48;77.00;99675.44;4937929;28;20466;-79
2022/08/31 05:41:06;;;;;;;7.10;3.83;;;;;;;19.45;77.12;99674.75;4940099;29;20460;-79
2022/08/31 05:43:33;;;;;;;3.97;3.67;;;;;;;19.46;77.22;99686.25;4942978;29;20690;-79
2022/08/31 05:45:59;;;;;;;5.70;3.70;;;;;;;19.44;76.92;99683.75;4936363;29;20717;-78
2022/08/31 05:48:26;;;;;;;4.07;3.30;;;;;;;19.39;77.35;99688.69;4943477;29;20464;-78
2022/08/31 05:50:53;;;;;;;4.67;4.07;;;;;;;19.36;77.27;99690.81;4931054;28;20477;-80
2022/08/31 05:53:19;;;;;;;4.97;4.37;;;;;;;19.34;77.24;99684.81;4940174;29;21341;-79
2022/08/31 05:55:44;;;;;;;5.13;4.27;;;;;;;19.34;77.41;99688.31;4944127;29;20544;-80
2022/08/31 05:58:11;;;;;;;3.43;3.13;;;;;;;19.33;77.26;99685.78;4944259;28;20747;-79
2022/08/31 06:00:38;;;;;;;4.30;3.43;;;;;;;19.33;77.10;99686.59;4940808;28;20494;-79
2022/08/31 06:03:31;;;;;;;6.17;3.27;;;;;;;19.37;77.09;99684.50;4944199;29;21087;-80
2022/08/31 06:06:08;;;;;;;4.23;3.83;;;;;;;19.39;76.64;99685.19;4941368;29;20461;-79
2022/08/31 06:08:35;;;;;;;4.90;3.93;;;;;;;19.38;76.67;99688.81;4943938;29;20528;-79
2022/08/31 06:11:02;;;;;;;4.90;3.30;;;;;;;19.36;76.52;99681.00;4943991;28;20464;-78
2022/08/31 06:13:28;;;;;;;4.43;3.80;;;;;;;19.34;76.30;99684.81;4944801;28;20477;-78
2022/08/31 06:15:57;;;;;;;4.57;3.47;;;;;;;19.33;76.21;99685.78;4939893;29;20465;-79
2022/08/31 06:18:23;;;;;;;4.40;4.00;;;;;;;19.31;76.12;99683.28;4934541;29;20484;-80
2022/08/31 06:20:49;;;;;;;6.10;3.60;;;;;;;19.30;76.32;99692.25;4959467;28;21103;-79
2022/08/31 06:23:16;;;;;;;5.43;3.90;;;;;;;19.32;76.09;99710.75;4944691;29;20977;-79
2022/08/31 06:25:47;;;;;;;6.13;4.47;;;;;;;19.33;76.07;99709.75;4957421;28;20569;-78
2022/08/31 06:28:14;;;;;;;4.60;4.10;;;;;;;19.34;76.23;99711.44;4926210;29;20460;-79
2022/08/31 06:30:39;;;;;;;5.20;3.73;;;;;;;19.36;76.04;99701.44;4935745;29;20858;-79
2022/08/31 06:33:05;;;;;;;5.30;4.20;;;;;;;19.38;75.75;99712.81;4946217;28;20544;-79
2022/08/31 06:35:44;;;;;;;5.90;4.77;;;;;;;19.37;75.84;99709.31;4938235;29;20621;-79
2022/08/31 06:38:34;;;;;;;4.40;4.00;;;;;;;19.40;75.95;99705.50;4941037;29;20609;-78
2022/08/31 06:41:23;;;;;;;6.30;5.13;;;;;;;19.40;75.97;99716.16;4935046;29;20449;-79
2022/08/31 06:44:22;;;;;;;6.83;5.00;;;;;;;19.40;76.02;99714.31;4924418;28;20496;-77
2022/08/31 06:47:04;;;;;;;7.40;5.87;;;;;;;19.41;75.97;99710.66;4941959;29;20464;-78
2022/08/31 06:49:35;;;;;;;6.50;5.33;;;;;;;19.45;76.08;99709.38;4938604;28;20455;-79
2022/08/31 06:54:35;;;;;;;5.63;4.50;;;;;;;19.52;76.30;99704.28;4919603;29;20495;-78
2022/08/31 06:57:19;;;;;;;7.47;5.57;;;;;;;19.55;76.20;99709.31;4921042;29;20798;-77
2022/08/31 07:00:05;;;;;;;5.70;4.77;;;;;;;19.58;76.04;99708.19;4924787;29;20505;-77
2022/08/31 07:03:21;;;;;;;6.20;5.30;;;;;;;19.65;75.76;99711.88;4898918;29;21402;-78
2022/08/31 07:05:45;;;;;;;12.73;6.60;;;;;;;19.72;75.67;99712.16;4925606;29;20938;-77
2022/08/31 07:08:10;;;;;;;6.50;5.27;;;;;;;19.77;75.48;99716.03;4929699;28;20535;-78
2022/08/31 07:10:38;;;;;;;6.30;4.80;;;;;;;19.81;75.26;99716.53;4941609;28;20445;-77
2022/08/31 07:13:04;;;;;;;6.20;4.97;;;;;;;19.84;74.72;99721.56;4943446;29;20244;-77
2022/08/31 07:15:29;;;;;;;6.30;4.93;;;;;;;19.83;75.09;99718.06;4923966;29;20480;-77
2022/08/31 07:17:55;;;;;;;10.10;4.70;;;;;;;19.87;74.50;99727.44;4925117;29;20434;-77
2022/08/31 07:20:20;;;;;;;4.77;4.33;;;;;;;19.92;74.31;99726.13;4942898;28;20553;-77
2022/08/31 07:22:46;;;;;;;6.23;4.37;;;;;;;19.91;74.06;99719.13;4941445;29;20642;-77
2022/08/31 07:25:28;;;;;;;5.07;3.87;;;;;;;19.96;73.70;99725.66;4924335;29;20544;-77
2022/08/31 07:27:54;;;;;;;6.00;4.03;;;;;;;19.96;73.27;99724.84;4933507;28;20499;-78
2022/08/31 07:30:24;;;;;;;4.13;3.50;;;;;;;19.98;72.76;99723.69;4942008;28;21017;-77
2022/08/31 07:32:50;;;;;;;4.00;3.60;;;;;;;20.09;72.66;99727.91;4923420;29;20548;-77
2022/08/31 07:35:17;;;;;;;3.83;3.53;;;;;;;20.31;72.00;99727.41;4933810;28;20930;-77
2022/08/31 07:43:35;;;;;;;6.47;4.00;;;;;;;20.87;69.99;99738.56;4956295;28;20472;-77
2022/08/31 07:46:00;;;;;;;5.50;4.10;;;;;;;21.00;69.60;99733.59;4928253;29;20472;-77
2022/08/31 07:48:27;;;;;;;4.43;3.93;;;;;;;21.14;69.51;99731.31;4924627;29;20828;-77
2022/08/31 07:51:22;;;;;;;3.70;3.17;;;;;;;21.23;69.21;99737.53;4943224;29;20486;-77
2022/08/31 07:54:09;;;;;;;4.60;4.00;;;;;;;21.27;69.13;99745.03;4919923;28;20820;-77
2022/08/31 07:56:43;;;;;;;5.30;3.40;;;;;;;21.29;69.21;99743.03;4926815;29;20519;-77
2022/08/31 07:59:11;;;;;;;5.00;3.97;;;;;;;21.32;69.51;99748.06;4934882;28;20472;-77
2022/08/31 08:01:39;;;;;;;5.00;3.50;;;;;;;21.31;69.44;99754.41;4925336;29;20577;-77
2022/08/31 08:04:06;;;;;;;5.43;4.40;;;;;;;21.31;69.49;99756.25;4924747;29;20453;-77
2022/08/31 08:07:11;;;;;;;4.03;3.63;;;;;;;21.28;69.48;99757.41;4942726;28;20514;-77
2022/08/31 08:09:42;;;;;;;7.87;3.90;;;;;;;21.32;69.21;99756.06;4960811;28;20947;-77
2022/08/31 08:12:23;;;;;;;7.80;4.20;;;;;;;21.34;68.68;99751.41;4960798;28;21004;-77
2022/08/31 08:15:06;;;;;;;4.43;3.23;;;;;;;21.47;68.42;99755.44;4921519;29;20524;-77
2022/08/31 08:17:50;;;;;;;4.30;3.90;;;;;;;21.64;67.68;99765.19;4937185;29;20481;-76
2022/08/31 08:20:21;;;;;;;4.10;3.70;;;;;;;21.74;67.08;99763.19;4928542;29;20493;-76
2022/08/31 08:22:47;;;;;;;5.00;3.50;;;;;;;21.85;66.80;99765.53;4922948;29;20986;-77
2022/08/31 08:25:27;;;;;;;6.80;4.60;;;;;;;21.97;66.83;99767.88;4924767;29;20483;-77
2022/08/31 08:28:17;;;;;;;5.27;3.50;;;;;;;22.07;66.47;99771.22;4921644;29;20466;-76
2022/08/31 08:30:44;;;;;;;3.93;3.53;;;;;;;22.13;66.06;99775.91;4924553;29;20528;-77
2022/08/31 08:33:09;;;;;;;9.00;3.90;;;;;;;22.21;65.45;99765.22;4922476;29;20995;-77
2022/08/31 08:35:36;;;;;;;3.50;3.20;;;;;;;22.32;65.50;99761.34;4922594;29;20481;-77
2022/08/31 08:38:02;;;;;;;6.73;4.70;;;;;;;22.58;64.49;99771.84;4922041;29;20443;-77
2022/08/31 08:40:36;;;;;;;3.97;3.57;;;;;;;23.21;62.45;99766.63;4921104;29;20696;-77
2022/08/31 08:43:03;;;;;;;4.00;3.30;;;;;;;23.67;61.01;99755.94;4936062;28;20230;-77
2022/08/31 08:45:30;;;;;;;5.30;3.07;;;;;;;24.06;58.87;99761.19;4922251;29;20522;-77
2022/08/31 08:47:57;;;;;;;5.37;3.30;;;;;;;24.21;57.76;99758.56;4923723;29;20427;-77
2022/08/31 08:50:26;;;;;;;3.30;3.00;;;;;;;24.41;57.38;99757.03;4922834;29;20445;-77
2022/08/31 08:52:55;;;;;;;3.73;2.87;;;;;;;24.54;56.85;99752.88;4923592;29;20446;-77
2022/08/31 08:55:29;;;;;;;3.53;2.83;;;;;;;24.54;56.98;99760.94;4922100;29;20419;-77
2022/08/31 08:57:55;;;;;;;4.60;2.90;;;;;;;24.50;55.29;99750.56;4924006;29;20413;-77
2022/08/31 09:00:24;;;;;;;3.30;2.87;;;;;;;24.43;56.24;99762.19;4925468;29;21015;-77
2022/08/31 09:03:06;;;;;;;3.67;2.93;;;;;;;24.29;55.10;99761.16;4925572;29;20964;-77
2022/08/31 09:06:36;;;;;;;4.20;3.23;;;;;;;24.09;56.21;99766.22;4933332;29;20800;-77
2022/08/31 09:09:19;;;;;;;3.47;3.10;;;;;;;23.97;56.59;99757.75;4940576;29;20457;-77
2022/08/31 09:11:53;;;;;;;5.07;3.00;;;;;;;24.00;56.78;99764.59;4927449;29;20450;-77
2022/08/31 09:14:28;;;;;;;3.83;3.10;;;;;;;24.08;56.25;99757.31;4945600;29;20486;-77
2022/08/31 09:17:26;;;;;;;2.70;2.50;;;;;;;24.14;55.58;99762.97;4923481;29;20479;-77
2022/08/31 09:19:59;;;;;;;3.50;3.20;;;;;;;23.95;55.49;99757.13;4928937;29;20567;-77
2022/08/31 09:22:30;;;;;;;2.93;2.67;;;;;;;23.87;56.20;99756.31;4928815;29;21027;-77
2022/08/31 09:24:58;;;;;;;2.53;2.27;;;;;;;23.94;55.87;99755.44;4941706;28;20609;-77
2022/08/31 09:27:56;;;;;;;3.30;2.60;;;;;;;24.03;55.28;99756.19;4943359;29;20472;-77
2022/08/31 09:30:49;;;;;;;3.00;2.80;;;;;;;24.19;54.74;99763.25;4946325;29;20480;-77
2022/08/31 09:33:45;;;;;;;4.37;3.43;;;;;;;24.40;53.70;99767.94;4945293;29;20428;-77
2022/08/31 09:36:21;;;;;;;2.77;2.57;;;;;;;24.63;53.13;99768.72;4942725;29;20608;-77
2022/08/31 09:38:48;;;;;;;6.30;2.73;;;;;;;24.80;53.16;99769.38;4945793;29;20439;-77
2022/08/31 09:41:30;;;;;;;3.20;2.90;;;;;;;24.88;53.32;99774.66;4945237;29;20449;-77
2022/08/31 09:44:18;;;;;;;2.73;2.40;;;;;;;24.77;53.87;99769.75;4943872;28;20540;-76
2022/08/31 09:46:50;;;;;;;3.63;3.33;;;;;;;24.41;52.59;99780.31;4941151;29;20452;-77
2022/08/31 09:49:22;;;;;;;2.97;2.77;;;;;;;24.23;52.61;99783.38;4943953;29;20646;-77
2022/08/31 09:51:48;;;;;;;3.83;3.43;;;;;;;24.14;52.88;99779.94;4943459;28;21066;-77
2022/08/31 09:56:59;;;;;;;4.57;3.03;;;;;;;24.32;52.22;99776.91;4941519;29;20564;-77
2022/08/31 09:59:45;;;;;;;3.80;2.87;;;;;;;24.55;52.03;99778.69;4944438;29;20524;-77
2022/08/31 10:02:30;;;;;;;4.20;3.73;;;;;;;24.70;51.48;99774.19;4941015;28;20690;-77
2022/08/31 10:05:05;;;;;;;3.20;2.90;;;;;;;24.68;51.20;99770.84;4926362;29;20928;-77
2022/08/31 10:07:43;;;;;;;3.77;3.20;;;;;;;24.73;51.23;99769.28;4940523;28;20809;-77
2022/08/31 10:10:25;;;;;;;2.67;2.47;;;;;;;24.92;51.09;99764.34;4944528;29;20466;-77
2022/08/31 10:12:59;;;;;;;2.97;2.73;;;;;;;25.03;50.41;99763.03;4944256;29;20518;-77
2022/08/31 10:15:38;;;;;;;4.10;3.50;;;;;;;25.04;50.70;99759.34;4943835;29;20415;-80
2022/08/31 10:18:28;;;;;;;9.53;3.60;;;;;;;25.22;50.27;99754.44;4940670;28;20411;-78
2022/08/31 10:21:06;;;;;;;3.47;3.17;;;;;;;25.52;49.63;99749.81;4955952;28;21062;-80
2022/08/31 10:23:37;;;;;;;3.30;3.00;;;;;;;25.58;48.56;99745.50;4964854;28;20455;-80
2022/08/31 10:26:11;;;;;;;4.13;2.70;;;;;;;25.75;48.51;99746.06;4947054;28;20952;-80
2022/08/31 10:28:51;;;;;;;3.40;3.10;;;;;;;25.99;46.85;99732.25;4939561;29;20526;-80
2022/08/31 10:31:22;;;;;;;5.70;4.80;;;;;;;26.02;47.30;99736.41;4926556;29;20409;-80
2022/08/31 10:36:59;;;;;;;4.30;3.90;;;;;;;25.95;45.98;99735.50;4944911;28;20448;-80
2022/08/31 10:39:47;;;;;;;3.40;2.90;;;;;;;25.94;46.13;99731.16;4943249;29;20560;-80
2022/08/31 10:42:23;;;;;;;4.20;3.30;;;;;;;26.09;45.76;99729.22;4944802;29;20427;-80
2022/08/31 10:44:57;;;;;;;3.50;3.17;;;;;;;26.31;45.69;99723.78;4943433;29;20543;-80
2022/08/31 10:47:29;;;;;;;2.83;2.47;;;;;;;26.38;45.11;99714.72;4943524;29;20849;-80
2022/08/31 10:49:58;;;;;;;3.50;3.13;;;;;;;26.34;45.05;99718.00;4942655;29;20925;-80
2022/08/31 10:52:41;;;;;;;3.40;3.20;;;;;;;26.35;45.30;99719.66;4940216;29;20632;-80
2022/08/31 10:55:36;;;;;;;3.40;3.10;;;;;;;26.37;45.01;99707.66;4904498;29;20544;-80
2022/08/31 10:58:31;;;;;;;3.37;3.07;;;;;;;26.42;45.15;99705.22;4904279;29;20545;-80
2022/08/31 11:01:06;;;;;;;3.70;3.23;;;;;;;26.51;45.10;99703.22;4906848;29;20470;-80
2022/08/31 11:03:49;;;;;;;3.60;2.90;;;;;;;26.66;45.56;99703.09;4906121;29;20445;-80
2022/08/31 11:06:33;;;;;;;5.10;3.43;;;;;;;26.69;45.50;99708.91;4907046;29;20452;-80
2022/08/31 11:09:18;;;;;;;2.97;2.70;;;;;;;26.52;45.88;99693.25;4904386;29;20417;-80
2022/08/31 11:11:46;;;;;;;3.40;3.10;;;;;;;26.42;46.23;99688.22;4915474;29;20432;-80
2022/08/31 11:14:43;;;;;;;4.17;3.80;;;;;;;26.14;46.24;99691.78;4917089;29;20880;-80
2022/08/31 11:17:24;;;;;;;3.30;3.00;;;;;;;25.88;47.68;99694.28;4903126;29;20808;-79
2022/08/31 11:20:20;;;;;;;4.13;3.67;;;;;;;25.79;48.22;99691.69;4904138;29;20497;-79
2022/08/31 11:23:19;;;;;;;3.93;3.30;;;;;;;25.87;48.27;99673.75;4905306;29;20807;-80
2022/08/31 11:26:02;;;;;;;2.90;2.60;;;;;;;26.02;47.66;99674.50;4906412;29;20435;-80
2022/08/31 11:28:53;;;;;;;4.13;3.73;;;;;;;26.18;47.73;99671.50;4904743;29;20490;-80
2022/08/31 11:31:26;;;;;;;4.03;3.40;;;;;;;25.96;47.25;99662.66;4905243;29;20457;-79
2022/08/31 11:33:58;;;;;;;7.07;3.80;;;;;;;25.75;48.33;99670.75;4905842;29;20490;-80
2022/08/31 11:36:40;;;;;;;4.60;4.20;;;;;;;25.62;49.11;99674.16;4906115;29;20482;-79
2022/08/31 11:39:06;;;;;;;5.03;3.40;;;;;;;25.54;49.33;99666.22;4902487;29;20585;-80
2022/08/31 11:41:34;;;;;;;3.10;2.80;;;;;;;25.48;49.55;99675.88;4902904;29;20556;-79
2022/08/31 11:44:03;;;;;;;3.50;3.20;;;;;;;25.47;49.68;99668.03;4904000;29;20716;-79
2022/08/31 11:46:44;;;;;;;3.80;3.40;;;;;;;25.51;49.31;99659.34;4899939;29;20481;-80
2022/08/31 11:49:33;;;;;;;3.50;3.20;;;;;;;25.64;48.52;99660.50;4902676;29;20447;-80
2022/08/31 11:51:59;;;;;;;4.30;3.90;;;;;;;25.75;48.16;99644.66;4906843;29;20451;-80
2022/08/31 11:54:32;;;;;;;4.47;4.07;;;;;;;25.80;48.18;99647.59;4909002;29;20530;-80
2022/08/31 11:56:58;;;;;;;4.13;3.80;;;;;;;25.88;47.28;99643.97;4916519;29;20453;-80
2022/08/31 11:59:34;;;;;;;4.57;4.10;;;;;;;25.79;46.61;99647.81;4908207;29;20607;-81
2022/08/31 12:02:19;;;;;;;3.67;3.37;;;;;;;25.71;47.05;99638.03;4907644;29;20671;-80
2022/08/31 12:04:45;;;;;;;3.80;3.47;;;;;;;25.83;46.56;99633.78;4914006;29;21226;-80
2022/08/31 12:07:28;;;;;;;4.33;4.00;;;;;;;25.93;46.41;99638.00;4904473;29;20479;-81
2022/08/31 12:10:40;;;;;;;4.73;3.70;;;;;;;26.09;45.16;99626.09;4907809;29;20211;-81
2022/08/31 12:13:30;;;;;;;4.00;3.60;;;;;;;26.22;44.13;99637.78;4904741;29;20546;-80
2022/08/31 12:16:13;;;;;;;5.30;3.90;;;;;;;26.27;42.90;99629.09;4906089;29;20959;-81
2022/08/31 12:19:07;;;;;;;4.60;4.20;;;;;;;26.35;42.77;99630.78;4906088;29;20466;-80
2022/08/31 12:24:57;;;;;;;4.40;4.00;;;;;;;25.82;42.51;99623.22;4912174;29;21061;-80